createdAt,value
2018-04-18T00:01:14.272Z,9.20
2018-04-18T00:03:42.863Z,9.20
2018-04-18T00:06:12.851Z,9.10
2018-04-18T00:08:43.236Z,9.10
2018-04-18T00:11:11.298Z,9.10
2018-04-18T00:13:40.297Z,9.10
2018-04-18T00:16:08.141Z,9.10
2018-04-18T00:18:36.064Z,9.10
2018-04-18T00:21:04.013Z,9.00
2018-04-18T00:23:32.735Z,9.00
2018-04-18T00:26:00.596Z,9.00
2018-04-18T00:28:28.547Z,9.00
2018-04-18T00:30:57.164Z,9.00
2018-04-18T00:33:25.824Z,8.90
2018-04-18T00:35:54.444Z,8.90
2018-04-18T00:38:22.377Z,8.90
2018-04-18T00:40:51.009Z,8.90
2018-04-18T00:43:19.360Z,8.90
2018-04-18T00:45:48.000Z,8.90
2018-04-18T00:48:16.769Z,8.80
2018-04-18T00:50:44.609Z,8.80
2018-04-18T00:53:13.252Z,8.80
2018-04-18T00:55:40.816Z,8.80
2018-04-18T00:58:08.591Z,8.70
2018-04-18T01:00:36.569Z,8.70
2018-04-18T01:03:04.376Z,8.70
2018-04-18T01:05:33.079Z,8.60
2018-04-18T01:08:00.856Z,8.60
2018-04-18T01:10:28.708Z,8.60
2018-04-18T01:12:57.908Z,8.60
2018-04-18T01:15:27.552Z,8.50
2018-04-18T01:17:55.344Z,8.50
2018-04-18T01:20:23.208Z,8.50
2018-04-18T01:22:51.041Z,8.50
2018-04-18T01:25:18.848Z,8.50
2018-04-18T01:27:46.806Z,8.40
2018-04-18T01:30:14.612Z,8.40
2018-04-18T01:32:42.626Z,8.40
2018-04-18T01:35:11.237Z,8.40
2018-04-18T01:37:39.088Z,8.30
2018-04-18T01:40:07.673Z,8.30
2018-04-18T01:42:35.994Z,8.30
2018-04-18T01:45:03.780Z,8.30
2018-04-18T01:47:31.729Z,8.20
2018-04-18T01:49:59.284Z,8.20
2018-04-18T01:52:27.124Z,8.20
2018-04-18T01:54:55.748Z,8.20
2018-04-18T01:57:24.106Z,8.10
2018-04-18T01:59:52.839Z,8.10
2018-04-18T02:02:20.920Z,8.10
2018-04-18T02:04:48.817Z,8.10
2018-04-18T02:07:16.651Z,8.10
2018-04-18T02:09:44.593Z,8.10
2018-04-18T02:12:14.396Z,8.10
2018-04-18T02:14:43.217Z,8.10
2018-04-18T02:17:11.198Z,8.10
2018-04-18T02:19:39.042Z,8.10
2018-04-18T02:22:08.072Z,8.00
2018-04-18T02:24:35.943Z,8.00
2018-04-18T02:27:03.983Z,8.00
2018-04-18T02:29:32.557Z,8.00
2018-04-18T02:32:00.116Z,8.00
2018-04-18T02:34:28.328Z,8.00
2018-04-18T02:36:56.123Z,8.00
2018-04-18T02:39:24.295Z,8.00
2018-04-18T02:41:52.228Z,8.00
2018-04-18T02:44:20.557Z,8.00
2018-04-18T02:46:48.392Z,7.90
2018-04-18T02:49:16.927Z,8.00
2018-04-18T02:51:45.157Z,7.90
2018-04-18T02:54:13.744Z,7.90
2018-04-18T02:56:42.149Z,7.90
2018-04-18T02:59:10.205Z,7.90
2018-04-18T03:01:38.795Z,7.90
2018-04-18T03:04:07.341Z,7.90
2018-04-18T03:06:35.244Z,7.90
2018-04-18T03:09:03.120Z,7.90
2018-04-18T03:11:31.197Z,7.90
2018-04-18T03:13:59.775Z,7.90
2018-04-18T03:16:28.411Z,7.80
2018-04-18T03:18:56.526Z,7.80
2018-04-18T03:21:24.166Z,7.80
2018-04-18T03:23:51.992Z,7.80
2018-04-18T03:26:21.408Z,7.80
2018-04-18T03:28:49.952Z,7.70
2018-04-18T03:31:17.757Z,7.70
2018-04-18T03:33:46.400Z,7.70
2018-04-18T03:36:14.037Z,7.70
2018-04-18T03:38:41.880Z,9.00
2018-04-18T03:41:10.476Z,7.70
2018-04-18T03:43:39.163Z,7.70
2018-04-18T03:46:07.000Z,7.70
2018-04-18T03:48:34.768Z,7.70
2018-04-18T03:51:02.579Z,7.70
2018-04-18T03:53:31.263Z,7.70
2018-04-18T03:56:00.311Z,7.70
2018-04-18T03:58:28.263Z,7.70
2018-04-18T04:00:56.141Z,7.70
2018-04-18T04:03:23.984Z,7.80
2018-04-18T04:05:52.683Z,7.80
2018-04-18T04:08:20.546Z,7.80
2018-04-18T04:10:49.669Z,7.80
2018-04-18T04:13:17.686Z,7.80
2018-04-18T04:15:45.592Z,7.90
2018-04-18T04:18:26.349Z,7.90
2018-04-18T04:21:06.201Z,8.00
2018-04-18T04:23:46.860Z,8.20
2018-04-18T04:26:15.444Z,8.30
2018-04-18T04:28:44.080Z,8.40
2018-04-18T04:31:11.782Z,8.40
2018-04-18T04:33:39.576Z,8.50
2018-04-18T04:36:08.034Z,8.70
2018-04-18T04:38:35.909Z,8.70
2018-04-18T04:41:04.518Z,8.80
2018-04-18T04:43:33.150Z,8.80
2018-04-18T04:46:00.709Z,8.80
2018-04-18T04:48:28.551Z,8.80
2018-04-18T04:50:56.884Z,8.90
2018-04-18T04:53:24.764Z,8.90
2018-04-18T04:55:52.436Z,9.00
2018-04-18T04:58:19.989Z,9.10
2018-04-18T05:00:47.535Z,9.10
2018-04-18T05:03:15.611Z,9.20
2018-04-18T05:05:43.525Z,9.30
2018-04-18T05:08:11.380Z,9.40
2018-04-18T05:10:38.940Z,9.60
2018-04-18T05:13:06.754Z,9.70
2018-04-18T05:15:35.387Z,9.80
2018-04-18T05:18:03.242Z,9.80
2018-04-18T05:20:31.735Z,9.90
2018-04-18T05:22:59.596Z,9.90
2018-04-18T05:25:27.436Z,9.90
2018-04-18T05:27:56.091Z,10.10
2018-04-18T05:30:23.715Z,10.10
2018-04-18T05:32:51.399Z,10.10
2018-04-18T05:35:19.336Z,10.20
2018-04-18T05:37:47.931Z,10.30
2018-04-18T05:40:16.493Z,10.30
2018-04-18T05:42:45.100Z,10.30
2018-04-18T05:45:13.862Z,10.30
2018-04-18T05:47:41.988Z,10.30
2018-04-18T05:50:09.853Z,10.40
2018-04-18T05:52:38.401Z,10.40
2018-04-18T05:55:06.252Z,10.40
2018-04-18T05:57:34.131Z,10.40
2018-04-18T06:00:02.009Z,10.50
2018-04-18T06:02:29.796Z,10.50
2018-04-18T06:04:58.408Z,10.40
2018-04-18T06:07:26.976Z,10.40
2018-04-18T06:09:54.755Z,10.40
2018-04-18T06:12:22.692Z,10.40
2018-04-18T06:14:50.522Z,10.40
2018-04-18T06:17:18.343Z,10.50
2018-04-18T06:19:46.127Z,10.50
2018-04-18T06:22:14.389Z,10.50
2018-04-18T06:24:42.168Z,10.50
2018-04-18T06:27:09.838Z,10.50
2018-04-18T06:29:37.452Z,10.50
2018-04-18T06:32:06.438Z,10.50
2018-04-18T06:34:34.309Z,10.50
2018-04-18T06:37:02.632Z,10.60
2018-04-18T06:39:30.188Z,10.60
2018-04-18T06:41:58.153Z,10.60
2018-04-18T06:44:25.996Z,10.60
2018-04-18T06:46:54.392Z,10.70
2018-04-18T06:49:22.260Z,10.70
2018-04-18T06:51:50.117Z,10.80
2018-04-18T06:54:18.674Z,10.90
2018-04-18T06:56:46.779Z,10.80
2018-04-18T06:59:15.332Z,10.90
2018-04-18T07:01:42.896Z,10.90
2018-04-18T07:04:10.913Z,11.00
2018-04-18T07:06:38.767Z,11.00
2018-04-18T07:09:07.427Z,11.10
2018-04-18T07:11:35.843Z,11.10
2018-04-18T07:14:03.668Z,11.20
2018-04-18T07:16:31.536Z,11.20
2018-04-18T07:18:59.348Z,11.30
2018-04-18T07:21:26.991Z,11.30
2018-04-18T07:23:54.840Z,11.40
2018-04-18T07:26:22.498Z,11.40
2018-04-18T07:28:50.340Z,11.50
2018-04-18T07:31:18.933Z,11.50
2018-04-18T07:33:49.285Z,11.50
2018-04-18T07:36:17.104Z,11.50
2018-04-18T07:38:44.680Z,11.50
2018-04-18T07:41:12.544Z,11.60
2018-04-18T07:43:40.336Z,11.60
2018-04-18T07:46:08.919Z,11.60
2018-04-18T07:48:37.547Z,11.60
2018-04-18T07:51:05.381Z,11.60
2018-04-18T07:53:34.072Z,11.70
2018-04-18T07:56:01.950Z,11.60
2018-04-18T07:58:30.428Z,11.70
2018-04-18T08:00:58.240Z,11.70
2018-04-18T08:03:26.088Z,11.70
2018-04-18T08:05:54.143Z,11.80
2018-04-18T08:08:21.929Z,11.80
2018-04-18T08:10:50.513Z,11.90
2018-04-18T08:13:19.108Z,11.90
2018-04-18T08:15:47.785Z,12.00
2018-04-18T08:18:16.126Z,12.00
2018-04-18T08:20:43.704Z,12.00
2018-04-18T08:23:11.612Z,12.00
2018-04-18T08:25:40.195Z,12.10
2018-04-18T08:28:08.747Z,12.10
2018-04-18T08:30:36.567Z,12.10
2018-04-18T08:33:04.383Z,12.20
2018-04-18T08:35:32.217Z,12.20
2018-04-18T08:38:00.536Z,12.20
2018-04-18T08:40:29.029Z,12.20
2018-04-18T08:42:56.868Z,12.20
2018-04-18T08:45:24.704Z,12.20
2018-04-18T08:47:53.498Z,12.20
2018-04-18T08:50:22.129Z,12.20
2018-04-18T08:52:49.720Z,12.20
2018-04-18T08:55:17.499Z,12.30
2018-04-18T08:57:45.332Z,12.30
2018-04-18T09:00:13.164Z,12.30
2018-04-18T09:02:41.803Z,12.40
2018-04-18T09:05:09.758Z,12.40
2018-04-18T09:07:37.566Z,12.40
2018-04-18T09:10:05.168Z,12.40
2018-04-18T09:12:33.493Z,12.50
2018-04-18T09:15:01.313Z,12.50
2018-04-18T09:17:29.144Z,12.60
2018-04-18T09:19:57.383Z,12.60
2018-04-18T09:22:25.164Z,12.60
2018-04-18T09:24:52.732Z,12.60
2018-04-18T09:27:20.557Z,12.70
2018-04-18T09:29:48.336Z,12.70
2018-04-18T09:32:16.985Z,12.70
2018-04-18T09:34:44.764Z,12.70
2018-04-18T09:37:13.681Z,12.70
2018-04-18T09:39:41.506Z,12.70
2018-04-18T09:42:09.324Z,12.60
2018-04-18T09:44:36.871Z,12.60
2018-04-18T09:47:04.429Z,12.60
2018-04-18T09:49:32.272Z,12.60
2018-04-18T09:52:00.048Z,12.50
2018-04-18T09:54:27.893Z,12.50
2018-04-18T09:56:55.742Z,12.50
2018-04-18T09:59:24.331Z,12.50
2018-04-18T10:01:53.621Z,12.50
2018-04-18T10:04:26.984Z,12.40
2018-04-18T10:06:54.725Z,12.40
2018-04-18T10:09:22.280Z,12.50
2018-04-18T10:11:50.614Z,12.50
2018-04-18T10:14:18.439Z,12.50
2018-04-18T10:16:47.128Z,12.50
2018-04-18T10:19:14.774Z,12.60
2018-04-18T10:21:43.327Z,12.70
2018-04-18T10:24:10.953Z,12.60
2018-04-18T10:26:39.004Z,12.70
2018-04-18T10:29:07.323Z,12.80
2018-04-18T10:31:35.153Z,12.80
2018-04-18T10:34:04.200Z,12.80
2018-04-18T10:36:32.041Z,12.80
2018-04-18T10:39:00.650Z,12.90
2018-04-18T10:41:28.230Z,12.90
2018-04-18T10:43:55.780Z,12.90
2018-04-18T10:46:23.857Z,13.00
2018-04-18T10:48:51.670Z,13.00
2018-04-18T10:51:19.480Z,13.10
2018-04-18T10:53:47.064Z,13.10
2018-04-18T10:56:15.004Z,13.10
2018-04-18T10:58:43.484Z,13.20
2018-04-18T11:01:12.213Z,13.30
2018-04-18T11:03:40.051Z,13.30
2018-04-18T11:06:08.437Z,13.30
2018-04-18T11:08:36.892Z,13.30
2018-04-18T11:11:04.761Z,13.30
2018-04-18T11:13:32.639Z,13.40
2018-04-18T11:16:00.491Z,13.40
2018-04-18T11:18:28.404Z,13.40
2018-04-18T11:20:56.939Z,13.40
2018-04-18T11:23:24.734Z,13.40
2018-04-18T11:25:53.080Z,13.50
2018-04-18T11:28:20.928Z,13.50
2018-04-18T11:30:49.847Z,13.50
2018-04-18T11:33:17.695Z,13.50
2018-04-18T11:35:45.571Z,13.50
2018-04-18T11:38:13.364Z,13.60
2018-04-18T11:40:41.437Z,13.60
2018-04-18T11:43:09.371Z,13.70
2018-04-18T11:45:37.684Z,13.80
2018-04-18T11:48:05.524Z,13.80
2018-04-18T11:50:33.076Z,13.80
2018-04-18T11:53:00.832Z,13.80
2018-04-18T11:55:28.733Z,13.90
2018-04-18T11:57:57.552Z,14.00
2018-04-18T12:00:26.223Z,14.00
2018-04-18T12:02:54.913Z,14.20
2018-04-18T12:05:22.832Z,14.20
2018-04-18T12:07:50.380Z,14.30
2018-04-18T12:10:18.193Z,14.40
2018-04-18T12:12:45.972Z,14.50
2018-04-18T12:15:14.567Z,14.50
2018-04-18T12:17:42.840Z,14.50
2018-04-18T12:20:10.690Z,14.60
2018-04-18T12:22:38.890Z,14.60
2018-04-18T12:25:06.697Z,14.60
2018-04-18T12:27:34.585Z,14.60
2018-04-18T12:30:02.405Z,14.70
2018-04-18T12:32:30.192Z,14.70
2018-04-18T12:34:58.509Z,14.80
2018-04-18T12:37:26.086Z,14.80
2018-04-18T12:39:53.828Z,14.80
2018-04-18T12:42:21.772Z,14.90
2018-04-18T12:44:50.469Z,15.00
2018-04-18T12:47:19.388Z,15.00
2018-04-18T12:49:47.235Z,15.00
2018-04-18T12:52:15.818Z,15.10
2018-04-18T12:54:44.136Z,15.10
2018-04-18T12:57:12.040Z,15.10
2018-04-18T12:59:39.881Z,15.10
2018-04-18T13:02:07.552Z,15.10
2018-04-18T13:04:35.100Z,15.10
2018-04-18T13:07:02.884Z,15.10
2018-04-18T13:09:30.665Z,15.10
2018-04-18T13:11:58.216Z,15.20
2018-04-18T13:14:25.778Z,15.10
2018-04-18T13:16:53.720Z,15.10
2018-04-18T13:19:22.303Z,15.00
2018-04-18T13:21:50.188Z,15.00
2018-04-18T13:24:18.509Z,15.00
2018-04-18T13:26:46.468Z,14.90
2018-04-18T13:29:14.314Z,14.90
2018-04-18T13:31:42.896Z,14.80
2018-04-18T13:34:11.320Z,14.80
2018-04-18T13:36:39.144Z,14.80
2018-04-18T13:39:06.941Z,14.80
2018-04-18T13:41:34.564Z,14.80
2018-04-18T13:44:02.354Z,14.80
2018-04-18T13:46:30.973Z,14.90
2018-04-18T13:48:58.541Z,14.90
2018-04-18T13:51:26.352Z,14.90
2018-04-18T13:53:54.456Z,14.90
2018-04-18T13:56:22.773Z,14.90
2018-04-18T13:58:50.468Z,14.90
2018-04-18T14:01:18.280Z,14.90
2018-04-18T14:03:45.863Z,14.90
2018-04-18T14:06:13.537Z,15.00
2018-04-18T14:08:41.376Z,15.00
2018-04-18T14:13:42.915Z,15.10
2018-04-18T14:16:10.852Z,15.10
2018-04-18T14:18:38.592Z,15.20
2018-04-18T14:21:07.425Z,15.10
2018-04-18T14:23:35.350Z,15.10
2018-04-18T14:26:04.984Z,15.00
2018-04-18T14:28:32.557Z,15.00
2018-04-18T14:31:00.113Z,15.00
2018-04-18T14:33:27.711Z,15.00
2018-04-18T14:35:56.131Z,15.00
2018-04-18T14:38:24.828Z,15.00
2018-04-18T14:40:53.552Z,14.90
2018-04-18T14:43:21.415Z,14.90
2018-04-18T14:45:50.029Z,14.90
2018-04-18T14:48:18.588Z,14.90
2018-04-18T14:50:46.905Z,14.90
2018-04-18T14:53:14.875Z,14.90
2018-04-18T14:55:42.694Z,14.90
2018-04-18T14:58:10.251Z,14.90
2018-04-18T15:00:38.084Z,14.80
2018-04-18T15:03:05.915Z,14.90
2018-04-18T15:05:34.980Z,14.90
2018-04-18T15:08:02.764Z,14.90
2018-04-18T15:10:30.544Z,14.90
2018-04-18T15:12:59.492Z,14.90
2018-04-18T15:15:27.078Z,14.90
2018-04-18T15:17:56.492Z,14.90
2018-04-18T15:20:24.496Z,14.80
2018-04-18T15:22:53.632Z,14.90
2018-04-18T15:25:21.448Z,14.80
2018-04-18T15:27:49.273Z,14.90
2018-04-18T15:30:17.084Z,14.80
2018-04-18T15:32:46.419Z,14.80
2018-04-18T15:35:14.873Z,14.80
2018-04-18T15:37:43.525Z,14.80
2018-04-18T15:40:11.121Z,14.80
2018-04-18T15:42:39.035Z,14.80
2018-04-18T15:45:07.348Z,14.80
2018-04-18T15:47:35.196Z,14.80
2018-04-18T15:50:03.780Z,14.80
2018-04-18T15:52:31.333Z,14.80
2018-04-18T15:54:59.955Z,14.90
2018-04-18T15:57:27.832Z,14.90
2018-04-18T15:59:55.664Z,14.90
2018-04-18T16:02:25.313Z,14.90
2018-04-18T16:04:53.729Z,14.90
2018-04-18T16:07:22.176Z,14.90
2018-04-18T16:09:50.540Z,15.00
2018-04-18T16:12:19.124Z,15.00
2018-04-18T16:14:47.574Z,15.00
2018-04-18T16:17:15.592Z,15.00
2018-04-18T16:19:44.136Z,15.00
2018-04-18T16:22:12.040Z,15.00
2018-04-18T16:24:40.364Z,15.10
2018-04-18T16:27:08.284Z,15.10
2018-04-18T16:29:43.333Z,15.10
2018-04-18T16:32:11.732Z,15.10
2018-04-18T16:34:39.619Z,15.10
2018-04-18T16:37:07.442Z,15.10
2018-04-18T16:39:36.041Z,15.10
2018-04-18T16:42:03.918Z,15.10
2018-04-18T16:44:33.764Z,15.10
2018-04-18T16:47:02.098Z,15.10
2018-04-18T16:49:29.992Z,15.10
2018-04-18T16:51:58.403Z,15.10
2018-04-18T16:54:26.348Z,15.10
2018-04-18T16:56:55.000Z,15.10
2018-04-18T16:59:22.816Z,15.00
2018-04-18T17:01:51.395Z,15.00
2018-04-18T17:04:20.080Z,15.00
2018-04-18T17:06:49.633Z,15.00
2018-04-18T17:09:17.417Z,15.00
2018-04-18T17:11:45.360Z,15.00
2018-04-18T17:14:13.375Z,15.00
2018-04-18T17:16:41.292Z,14.90
2018-04-18T17:19:10.080Z,14.90
2018-04-18T17:21:38.460Z,14.90
2018-04-18T17:24:07.566Z,14.80
2018-04-18T17:26:36.183Z,14.80
2018-04-18T17:29:04.120Z,14.80
2018-04-18T17:31:32.664Z,14.80
2018-04-18T17:34:00.496Z,14.80
2018-04-18T17:36:29.196Z,14.70
2018-04-18T17:38:57.047Z,14.70
2018-04-18T17:41:25.768Z,14.70
2018-04-18T17:43:53.602Z,14.70
2018-04-18T17:46:22.433Z,14.60
2018-04-18T17:48:51.223Z,14.60
2018-04-18T17:51:19.100Z,14.60
2018-04-18T17:53:47.802Z,14.60
2018-04-18T17:56:15.620Z,14.60
2018-04-18T17:58:44.172Z,14.50
2018-04-18T18:01:11.896Z,14.50
2018-04-18T18:03:39.463Z,14.50
2018-04-18T18:06:07.326Z,14.40
2018-04-18T18:08:37.142Z,14.30
2018-04-18T18:11:06.021Z,14.30
2018-04-18T18:13:34.707Z,14.20
2018-04-18T18:16:03.078Z,14.20
2018-04-18T18:18:32.123Z,14.10
2018-04-18T18:20:59.960Z,14.20
2018-04-18T18:23:27.534Z,14.10
2018-04-18T18:25:56.211Z,14.00
2018-04-18T18:28:25.564Z,14.00
2018-04-18T18:30:53.689Z,14.00
2018-04-18T18:33:22.000Z,13.90
2018-04-18T18:35:51.035Z,13.90
2018-04-18T18:38:18.609Z,13.90
2018-04-18T18:40:46.197Z,13.80
2018-04-18T18:43:14.839Z,13.80
2018-04-18T18:45:42.360Z,13.70
2018-04-18T18:48:11.695Z,13.60
2018-04-18T18:50:39.573Z,13.60
2018-04-18T18:53:07.369Z,13.60
2018-04-18T18:55:35.274Z,13.60
2018-04-18T18:58:04.323Z,13.50
2018-04-18T19:00:32.533Z,13.40
2018-04-18T19:03:00.426Z,13.40
2018-04-18T19:05:28.904Z,13.40
2018-04-18T19:07:56.776Z,13.30
2018-04-18T19:10:24.913Z,13.30
2018-04-18T19:12:52.828Z,13.20
2018-04-18T19:15:20.718Z,13.20
2018-04-18T19:17:49.478Z,13.10
2018-04-18T19:20:17.366Z,13.10
2018-04-18T19:22:45.768Z,13.00
2018-04-18T19:25:14.354Z,12.90
2018-04-18T19:27:42.975Z,12.90
2018-04-18T19:30:10.952Z,12.90
2018-04-18T19:32:38.696Z,12.80
2018-04-18T19:35:08.125Z,12.70
2018-04-18T19:37:36.055Z,12.70
2018-04-18T19:40:04.379Z,12.60
2018-04-18T19:42:32.360Z,12.60
2018-04-18T19:45:00.882Z,12.60
2018-04-18T19:47:29.701Z,12.50
2018-04-18T19:49:57.998Z,12.40
2018-04-18T19:52:25.990Z,12.40
2018-04-18T19:54:53.540Z,12.40
2018-04-18T19:57:21.894Z,12.40
2018-04-18T19:59:49.667Z,12.30
2018-04-18T20:02:17.926Z,12.30
2018-04-18T20:04:45.732Z,12.30
2018-04-18T20:07:14.095Z,12.20
2018-04-18T20:09:41.812Z,12.20
2018-04-18T20:12:09.373Z,12.10
2018-04-18T20:14:37.198Z,12.10
2018-04-18T20:17:05.833Z,12.00
2018-04-18T20:19:33.773Z,12.00
2018-04-18T20:22:02.072Z,12.00
2018-04-18T20:24:31.389Z,11.90
2018-04-18T20:26:59.383Z,11.90
2018-04-18T20:29:27.156Z,11.90
2018-04-18T20:31:55.075Z,11.90
2018-04-18T20:34:23.398Z,11.80
2018-04-18T20:36:51.169Z,11.80
2018-04-18T20:39:19.011Z,11.80
2018-04-18T20:41:55.139Z,11.70
2018-04-18T20:44:23.747Z,11.60
2018-04-18T20:46:52.310Z,11.60
2018-04-18T20:49:20.070Z,11.60
2018-04-18T20:51:47.671Z,11.60
2018-04-18T20:54:16.350Z,11.50
2018-04-18T20:56:43.907Z,11.50
2018-04-18T20:59:12.518Z,11.50
2018-04-18T21:01:41.180Z,11.40
2018-04-18T21:04:08.781Z,11.40
2018-04-18T21:06:37.568Z,11.40
2018-04-18T21:09:05.884Z,11.40
2018-04-18T21:11:34.369Z,11.40
2018-04-18T21:14:02.132Z,11.40
2018-04-18T21:16:29.660Z,11.30
2018-04-18T21:18:59.018Z,11.30
2018-04-18T21:21:27.737Z,11.30
2018-04-18T21:23:57.249Z,11.30
2018-04-18T21:26:25.509Z,11.30
2018-04-18T21:28:53.032Z,11.30
2018-04-18T21:31:20.607Z,11.30
2018-04-18T21:33:48.435Z,11.20
2018-04-18T21:36:16.267Z,11.20
2018-04-18T21:38:46.568Z,11.20
2018-04-18T21:41:14.423Z,11.20
2018-04-18T21:43:42.726Z,11.10
2018-04-18T21:46:10.707Z,11.10
2018-04-18T21:48:38.468Z,11.10
2018-04-18T21:53:41.953Z,11.10
2018-04-18T21:56:10.678Z,11.10
2018-04-18T21:58:38.512Z,11.00
2018-04-18T22:01:06.844Z,11.00
2018-04-18T22:03:35.355Z,10.90
2018-04-18T22:06:04.052Z,10.90
2018-04-18T22:08:32.634Z,10.90
2018-04-18T22:11:01.216Z,10.90
2018-04-18T22:13:29.133Z,10.90
2018-04-18T22:15:57.002Z,10.80
2018-04-18T22:18:24.962Z,10.80
2018-04-18T22:20:52.516Z,10.70
2018-04-18T22:23:20.506Z,10.70
2018-04-18T22:25:48.043Z,10.70
2018-04-18T22:28:15.679Z,10.60
2018-04-18T22:30:44.303Z,10.60
2018-04-18T22:33:13.062Z,10.60
2018-04-18T22:35:40.609Z,10.60
2018-04-18T22:38:08.772Z,10.50
2018-04-18T22:40:36.596Z,10.50
2018-04-18T22:43:04.119Z,10.40
2018-04-18T22:45:32.568Z,10.40
2018-04-18T22:48:00.152Z,10.40
2018-04-18T22:50:28.591Z,10.30
2018-04-18T22:52:56.443Z,10.30
2018-04-18T22:55:24.012Z,10.30
2018-04-18T22:57:52.700Z,10.30
2018-04-18T23:00:22.010Z,10.30
2018-04-18T23:02:49.925Z,10.20
2018-04-18T23:05:19.230Z,10.20
2018-04-18T23:07:46.756Z,10.20
2018-04-18T23:10:14.613Z,10.20
2018-04-18T23:12:42.702Z,10.10
2018-04-18T23:15:10.472Z,10.10
2018-04-18T23:17:38.299Z,10.10
2018-04-18T23:20:06.891Z,10.00
2018-04-18T23:22:35.454Z,10.00
2018-04-18T23:25:02.969Z,9.90
2018-04-18T23:27:30.797Z,9.90
2018-04-18T23:29:59.430Z,9.90
2018-04-18T23:32:27.249Z,9.90
2018-04-18T23:34:54.812Z,9.90
2018-04-18T23:37:23.112Z,9.90
2018-04-18T23:39:51.736Z,9.80
2018-04-18T23:42:19.611Z,9.80
2018-04-18T23:44:47.437Z,9.80
2018-04-18T23:47:15.196Z,9.80
2018-04-18T23:49:42.936Z,9.70
2018-04-18T23:52:10.741Z,9.70
2018-04-18T23:54:38.263Z,9.70
2018-04-18T23:57:06.074Z,9.70
2018-04-18T23:59:33.847Z,9.70
